createdAt,value
2023-01-25T00:01:58.944Z,21.47
2023-01-25T00:04:26.682Z,22.87
2023-01-25T00:06:54.474Z,20.70
2023-01-25T00:09:23.015Z,21.53
2023-01-25T00:11:50.961Z,23.13
2023-01-25T00:14:18.111Z,22.07
2023-01-25T00:16:45.451Z,22.47
2023-01-25T00:19:12.756Z,19.87
2023-01-25T00:21:40.072Z,21.60
2023-01-25T00:24:07.724Z,21.70
2023-01-25T00:26:35.780Z,21.10
2023-01-25T00:29:03.850Z,21.10
2023-01-25T00:31:34.673Z,21.23
2023-01-25T00:34:06.520Z,21.30
2023-01-25T00:36:37.928Z,20.90
2023-01-25T00:39:06.031Z,20.73
2023-01-25T00:41:33.086Z,21.03
2023-01-25T00:44:00.627Z,21.67
2023-01-25T00:46:28.338Z,22.40
2023-01-25T00:48:55.756Z,21.40
2023-01-25T00:51:23.778Z,21.87
2023-01-25T00:53:51.229Z,20.10
2023-01-25T00:56:18.392Z,20.83
2023-01-25T00:58:45.559Z,21.63
2023-01-25T01:01:12.945Z,21.37
2023-01-25T01:03:40.316Z,21.40
2023-01-25T01:06:10.513Z,21.47
2023-01-25T01:08:42.093Z,22.93
2023-01-25T01:11:11.223Z,23.00
2023-01-25T01:13:41.570Z,22.40
2023-01-25T01:16:12.172Z,23.17
2023-01-25T01:18:41.903Z,22.17
2023-01-25T01:21:10.012Z,26.40
2023-01-25T01:23:37.677Z,23.00
2023-01-25T01:26:07.614Z,21.47
2023-01-25T01:28:35.905Z,22.60
2023-01-25T01:31:05.132Z,22.23
2023-01-25T01:33:36.387Z,21.73
2023-01-25T01:36:17.709Z,21.70
2023-01-25T01:38:45.063Z,20.83
2023-01-25T01:41:12.936Z,22.10
2023-01-25T01:43:40.490Z,21.87
2023-01-25T01:46:40.888Z,22.50
2023-01-25T01:49:24.900Z,22.30
2023-01-25T01:52:11.115Z,19.83
2023-01-25T01:54:47.144Z,22.53
2023-01-25T01:57:22.612Z,20.37
2023-01-25T02:00:05.651Z,21.40
2023-01-25T02:02:41.018Z,21.20
2023-01-25T02:05:18.429Z,23.00
2023-01-25T02:07:49.179Z,22.23
2023-01-25T02:10:20.272Z,21.57
2023-01-25T02:12:48.732Z,21.57
2023-01-25T02:15:15.737Z,20.93
2023-01-25T02:17:43.275Z,22.10
2023-01-25T02:20:27.325Z,22.47
2023-01-25T02:23:00.700Z,20.03
2023-01-25T02:25:28.289Z,19.83
2023-01-25T02:28:00.439Z,20.60
2023-01-25T02:30:28.574Z,20.73
2023-01-25T02:32:55.870Z,21.63
2023-01-25T02:35:37.920Z,21.60
2023-01-25T02:38:07.221Z,21.20
2023-01-25T02:40:58.941Z,20.33
2023-01-25T02:43:31.281Z,21.83
2023-01-25T02:46:20.546Z,19.83
2023-01-25T02:48:47.613Z,19.40
2023-01-25T02:51:14.654Z,21.13
2023-01-25T02:53:41.908Z,22.10
2023-01-25T02:56:09.008Z,19.70
2023-01-25T02:58:36.172Z,21.57
2023-01-25T03:01:03.193Z,21.43
2023-01-25T03:03:30.244Z,21.13
2023-01-25T03:05:57.983Z,20.77
2023-01-25T03:08:25.343Z,20.67
2023-01-25T03:10:58.462Z,20.00
2023-01-25T03:13:26.464Z,22.67
2023-01-25T03:16:00.004Z,22.10
2023-01-25T03:18:28.296Z,21.60
2023-01-25T03:20:55.226Z,21.03
2023-01-25T03:23:22.444Z,21.13
2023-01-25T03:25:50.608Z,21.57
2023-01-25T03:28:18.790Z,21.73
2023-01-25T03:30:53.829Z,21.50
2023-01-25T03:33:21.007Z,21.67
2023-01-25T03:35:52.750Z,22.70
2023-01-25T03:38:20.701Z,22.30
2023-01-25T03:40:48.143Z,22.53
2023-01-25T03:43:15.981Z,23.20
2023-01-25T03:45:43.118Z,20.83
2023-01-25T03:48:10.904Z,24.37
2023-01-25T03:50:38.577Z,23.10
2023-01-25T03:53:17.263Z,23.03
2023-01-25T03:55:44.308Z,20.77
2023-01-25T03:58:11.437Z,21.07
2023-01-25T04:00:38.628Z,21.73
2023-01-25T04:03:05.632Z,23.40
2023-01-25T04:05:32.631Z,22.37
2023-01-25T04:08:00.471Z,24.17
2023-01-25T04:10:37.402Z,25.30
2023-01-25T04:13:05.463Z,22.00
2023-01-25T04:15:32.915Z,22.93
2023-01-25T04:18:06.402Z,24.10
2023-01-25T04:20:36.308Z,21.90
2023-01-25T04:23:03.592Z,22.63
2023-01-25T04:25:36.593Z,23.23
2023-01-25T04:28:06.495Z,24.80
2023-01-25T04:30:33.465Z,23.93
2023-01-25T04:33:05.868Z,24.10
2023-01-25T04:35:34.226Z,23.10
2023-01-25T04:38:03.109Z,24.60
2023-01-25T04:40:43.177Z,23.83
2023-01-25T04:43:12.969Z,23.37
2023-01-25T04:45:40.305Z,23.97
2023-01-25T04:48:14.719Z,25.70
2023-01-25T04:50:49.400Z,24.33
2023-01-25T04:53:17.673Z,25.70
2023-01-25T04:55:47.319Z,23.17
2023-01-25T04:58:15.693Z,24.03
2023-01-25T05:00:43.887Z,22.37
2023-01-25T05:03:11.945Z,23.27
2023-01-25T05:05:38.872Z,25.97
2023-01-25T05:08:11.238Z,24.30
2023-01-25T05:10:38.438Z,24.80
2023-01-25T05:13:33.933Z,23.20
2023-01-25T05:16:13.219Z,25.93
2023-01-25T05:18:48.522Z,25.63
2023-01-25T05:21:38.648Z,26.37
2023-01-25T05:24:07.336Z,26.83
2023-01-25T05:26:55.680Z,28.13
2023-01-25T05:29:23.030Z,27.80
2023-01-25T05:32:15.697Z,29.80
2023-01-25T05:34:43.888Z,27.93
2023-01-25T05:37:14.786Z,28.43
2023-01-25T05:39:44.572Z,31.63
2023-01-25T05:42:13.622Z,30.10
2023-01-25T05:44:41.076Z,29.53
2023-01-25T05:47:17.618Z,27.37
2023-01-25T05:49:44.916Z,26.70
2023-01-25T05:52:18.340Z,27.00
2023-01-25T05:54:45.506Z,26.10
2023-01-25T05:57:15.791Z,27.43
2023-01-25T05:59:43.091Z,27.93
2023-01-25T06:02:12.191Z,27.03
2023-01-25T06:04:40.408Z,25.93
2023-01-25T06:07:09.363Z,25.70
2023-01-25T06:09:37.169Z,26.17
2023-01-25T06:12:06.108Z,27.20
2023-01-25T06:14:33.603Z,27.93
2023-01-25T06:17:02.325Z,26.37
2023-01-25T06:20:05.097Z,26.90
2023-01-25T06:22:36.894Z,26.47
2023-01-25T06:25:04.125Z,31.03
2023-01-25T06:27:31.063Z,30.50
2023-01-25T06:29:58.071Z,29.83
2023-01-25T06:32:26.086Z,28.67
2023-01-25T06:34:53.352Z,25.53
2023-01-25T06:37:23.057Z,26.27
2023-01-25T06:39:50.340Z,24.80
2023-01-25T06:42:17.534Z,24.20
2023-01-25T06:44:44.517Z,24.97
2023-01-25T06:47:12.544Z,23.30
2023-01-25T06:49:39.606Z,26.47
2023-01-25T06:52:06.583Z,25.47
2023-01-25T06:54:34.252Z,25.83
2023-01-25T06:57:01.239Z,24.70
2023-01-25T06:59:28.330Z,24.87
2023-01-25T07:01:55.318Z,23.83
2023-01-25T07:04:22.864Z,25.77
2023-01-25T07:06:49.946Z,23.57
2023-01-25T07:09:18.022Z,24.50
2023-01-25T07:11:45.088Z,25.50
2023-01-25T07:14:12.046Z,25.67
2023-01-25T07:16:39.194Z,25.23
2023-01-25T07:19:07.488Z,26.00
2023-01-25T07:21:34.487Z,24.33
2023-01-25T07:24:06.551Z,24.80
2023-01-25T07:26:33.611Z,24.83
2023-01-25T07:29:00.723Z,26.03
2023-01-25T07:31:28.757Z,26.50
2023-01-25T07:33:57.939Z,23.73
2023-01-25T07:36:26.284Z,23.13
2023-01-25T07:38:55.023Z,23.53
2023-01-25T07:41:25.590Z,24.43
2023-01-25T07:43:53.209Z,24.60
2023-01-25T07:46:31.020Z,25.10
2023-01-25T07:48:59.567Z,28.93
2023-01-25T07:51:27.953Z,28.37
2023-01-25T07:53:58.037Z,27.43
2023-01-25T07:56:28.235Z,28.17
2023-01-25T07:58:56.757Z,29.13
2023-01-25T08:01:26.569Z,26.63
2023-01-25T08:03:58.235Z,34.07
2023-01-25T08:06:33.358Z,31.73
2023-01-25T08:09:02.701Z,29.50
2023-01-25T08:11:31.364Z,28.20
2023-01-25T08:13:59.121Z,30.47
2023-01-25T08:16:27.114Z,29.00
2023-01-25T08:18:59.490Z,31.83
2023-01-25T08:21:30.975Z,30.20
2023-01-25T08:24:03.920Z,28.70
2023-01-25T08:26:31.206Z,30.53
2023-01-25T08:28:58.904Z,25.63
2023-01-25T08:31:28.864Z,26.10
2023-01-25T08:33:58.398Z,28.10
2023-01-25T08:36:28.154Z,24.03
2023-01-25T08:39:04.623Z,23.73
2023-01-25T08:41:33.236Z,22.33
2023-01-25T08:44:00.307Z,28.70
2023-01-25T08:46:31.582Z,30.23
2023-01-25T08:49:00.973Z,32.27
2023-01-25T08:51:28.665Z,27.63
2023-01-25T08:53:55.723Z,29.47
2023-01-25T08:56:23.013Z,25.10
2023-01-25T08:58:51.219Z,22.40
2023-01-25T09:01:19.891Z,23.47
2023-01-25T09:03:51.714Z,26.20
2023-01-25T09:06:20.386Z,26.20
2023-01-25T09:08:48.397Z,24.30
2023-01-25T09:11:22.971Z,26.00
2023-01-25T09:13:50.482Z,24.10
2023-01-25T09:16:28.969Z,24.43
2023-01-25T09:18:58.987Z,24.50
2023-01-25T09:21:26.270Z,23.17
2023-01-25T09:24:09.663Z,21.57
2023-01-25T09:26:46.005Z,21.00
2023-01-25T09:29:18.161Z,21.63
2023-01-25T09:31:45.245Z,22.13
2023-01-25T09:34:16.014Z,21.93
2023-01-25T09:36:42.964Z,20.50
2023-01-25T09:39:12.364Z,19.87
2023-01-25T09:42:06.743Z,22.60
2023-01-25T09:45:28.808Z,21.07
2023-01-25T09:48:20.656Z,25.40
2023-01-25T09:51:19.511Z,24.80
2023-01-25T09:53:51.717Z,21.73
2023-01-25T09:56:30.465Z,18.87
2023-01-25T09:59:06.750Z,20.00
2023-01-25T10:02:03.269Z,22.90
2023-01-25T10:04:42.495Z,25.67
2023-01-25T10:07:40.700Z,22.30
2023-01-25T10:10:16.414Z,20.00
2023-01-25T10:12:43.496Z,16.80
2023-01-25T10:15:38.286Z,23.87
2023-01-25T10:18:38.870Z,19.27
2023-01-25T10:21:34.119Z,16.10
2023-01-25T10:24:13.170Z,14.60
2023-01-25T10:26:45.022Z,17.20
2023-01-25T10:29:21.797Z,22.07
2023-01-25T10:31:54.828Z,21.03
2023-01-25T10:34:47.047Z,19.60
2023-01-25T10:37:31.276Z,19.73
2023-01-25T10:40:20.707Z,20.07
2023-01-25T10:42:56.303Z,19.60
2023-01-25T10:45:23.343Z,19.07
2023-01-25T10:47:57.400Z,16.43
2023-01-25T10:50:42.362Z,17.23
2023-01-25T10:53:28.060Z,16.10
2023-01-25T10:56:22.547Z,15.53
2023-01-25T10:58:54.407Z,15.03
2023-01-25T11:01:31.727Z,13.83
2023-01-25T11:04:00.075Z,14.47
2023-01-25T11:06:35.706Z,16.37
2023-01-25T11:09:29.329Z,17.17
2023-01-25T11:11:59.168Z,16.00
2023-01-25T11:14:28.899Z,16.70
2023-01-25T11:16:59.196Z,14.23
2023-01-25T11:19:36.755Z,16.77
2023-01-25T11:22:24.576Z,17.37
2023-01-25T11:24:51.758Z,13.07
2023-01-25T11:27:25.120Z,13.50
2023-01-25T11:30:30.925Z,15.13
2023-01-25T11:32:57.962Z,15.65
2023-01-25T11:35:33.204Z,14.67
2023-01-25T11:38:09.082Z,15.97
2023-01-25T11:40:47.044Z,16.67
2023-01-25T11:43:17.054Z,16.20
2023-01-25T11:46:06.746Z,14.90
2023-01-25T11:48:50.650Z,16.40
2023-01-25T11:51:38.351Z,14.27
2023-01-25T11:54:29.921Z,16.23
2023-01-25T11:57:08.794Z,15.27
2023-01-25T11:59:48.425Z,16.00
2023-01-25T12:02:53.332Z,15.77
2023-01-25T12:05:32.349Z,16.23
2023-01-25T12:08:34.507Z,16.00
2023-01-25T12:11:23.233Z,18.87
2023-01-25T12:14:07.388Z,19.57
2023-01-25T12:16:55.949Z,20.63
2023-01-25T12:19:40.667Z,18.90
2023-01-25T12:23:05.943Z,19.47
2023-01-25T12:25:47.367Z,18.40
2023-01-25T12:28:22.395Z,19.27
2023-01-25T12:30:55.932Z,16.83
2023-01-25T12:34:04.837Z,19.93
2023-01-25T12:36:33.488Z,17.67
2023-01-25T12:39:30.298Z,18.07
2023-01-25T12:42:18.698Z,17.07
2023-01-25T12:45:07.572Z,15.90
2023-01-25T12:47:58.388Z,17.53
2023-01-25T12:50:55.082Z,16.97
2023-01-25T12:53:27.311Z,15.13
2023-01-25T12:55:56.489Z,16.77
2023-01-25T12:58:38.856Z,16.97
2023-01-25T13:01:13.983Z,16.33
2023-01-25T13:04:05.299Z,17.43
2023-01-25T13:06:37.393Z,16.57
2023-01-25T13:09:17.372Z,18.13
2023-01-25T13:11:46.469Z,17.80
2023-01-25T13:14:16.714Z,17.57
2023-01-25T13:17:36.399Z,18.43
2023-01-25T13:20:23.793Z,19.03
2023-01-25T13:22:52.155Z,19.63
2023-01-25T13:25:21.637Z,17.97
2023-01-25T13:27:51.564Z,18.83
2023-01-25T13:30:34.571Z,20.63
2023-01-25T13:33:04.399Z,21.90
2023-01-25T13:35:33.802Z,19.43
2023-01-25T13:38:07.910Z,19.27
2023-01-25T13:40:38.696Z,20.63
2023-01-25T13:43:20.483Z,21.43
2023-01-25T13:45:52.916Z,20.87
2023-01-25T13:48:25.962Z,20.00
2023-01-25T13:51:08.628Z,20.07
2023-01-25T13:53:39.713Z,17.60
2023-01-25T13:56:27.340Z,18.43
2023-01-25T13:58:54.335Z,18.57
2023-01-25T14:01:23.805Z,19.30
2023-01-25T14:03:55.698Z,20.13
2023-01-25T14:06:26.134Z,19.70
2023-01-25T14:08:55.923Z,22.90
2023-01-25T14:11:26.012Z,19.53
2023-01-25T14:14:03.443Z,20.93
2023-01-25T14:16:32.457Z,22.00
2023-01-25T14:19:23.454Z,20.60
2023-01-25T14:21:57.914Z,21.13
2023-01-25T14:24:25.124Z,22.40
2023-01-25T14:26:52.078Z,22.03
2023-01-25T14:29:35.952Z,19.37
2023-01-25T14:32:04.036Z,19.47
2023-01-25T14:34:31.333Z,18.80
2023-01-25T14:37:18.828Z,19.43
2023-01-25T14:39:47.446Z,21.30
2023-01-25T14:42:16.708Z,19.03
2023-01-25T14:44:44.861Z,19.80
2023-01-25T14:47:31.904Z,21.50
2023-01-25T14:50:30.912Z,20.20
2023-01-25T14:53:24.688Z,20.53
2023-01-25T14:55:52.214Z,21.13
2023-01-25T14:58:24.923Z,22.07
2023-01-25T15:00:58.412Z,22.00
2023-01-25T15:03:26.812Z,19.93
2023-01-25T15:06:01.425Z,19.97
2023-01-25T15:08:40.011Z,19.83
2023-01-25T15:11:48.879Z,21.53
2023-01-25T15:14:22.180Z,21.33
2023-01-25T15:16:49.513Z,20.40
2023-01-25T15:19:31.036Z,21.17
2023-01-25T15:21:59.973Z,21.00
2023-01-25T15:24:27.806Z,20.43
2023-01-25T15:26:55.706Z,20.97
2023-01-25T15:29:27.161Z,21.60
2023-01-25T15:31:56.552Z,20.70
2023-01-25T15:34:34.585Z,20.33
2023-01-25T15:37:01.959Z,20.30
2023-01-25T15:39:29.124Z,22.97
2023-01-25T15:41:56.424Z,24.40
2023-01-25T15:44:26.450Z,23.00
2023-01-25T15:46:53.851Z,22.43
2023-01-25T15:49:27.504Z,21.13
2023-01-25T15:51:58.009Z,19.67
2023-01-25T15:54:25.463Z,21.47
2023-01-25T15:56:58.516Z,19.10
2023-01-25T15:59:29.435Z,21.30
2023-01-25T16:01:56.996Z,19.80
2023-01-25T16:04:26.035Z,19.47
2023-01-25T16:06:54.506Z,19.27
2023-01-25T16:09:22.838Z,18.13
2023-01-25T16:11:55.409Z,22.17
2023-01-25T16:14:26.508Z,22.17
2023-01-25T16:16:54.272Z,20.67
2023-01-25T16:19:23.104Z,20.57
2023-01-25T16:21:52.096Z,22.13
2023-01-25T16:24:19.709Z,21.67
2023-01-25T16:27:09.389Z,21.17
2023-01-25T16:29:36.953Z,21.40
2023-01-25T16:32:04.106Z,25.10
2023-01-25T16:34:32.621Z,33.73
2023-01-25T16:37:01.899Z,35.03
2023-01-25T16:39:29.503Z,28.57
2023-01-25T16:41:58.100Z,21.83
2023-01-25T16:44:25.633Z,20.97
2023-01-25T16:46:52.879Z,22.40
2023-01-25T16:49:24.165Z,26.60
2023-01-25T16:51:57.702Z,28.23
2023-01-25T16:54:26.638Z,26.53
2023-01-25T16:56:58.049Z,29.20
2023-01-25T16:59:26.874Z,20.43
2023-01-25T17:01:54.613Z,20.00
2023-01-25T17:04:22.922Z,18.10
2023-01-25T17:06:53.079Z,31.07
2023-01-25T17:09:23.983Z,34.53
2023-01-25T17:11:56.453Z,43.30
2023-01-25T17:14:24.698Z,30.60
2023-01-25T17:16:53.906Z,24.57
2023-01-25T17:19:22.201Z,25.23
2023-01-25T17:21:50.187Z,24.13
2023-01-25T17:24:22.042Z,21.77
2023-01-25T17:26:51.808Z,23.53
2023-01-25T17:29:22.081Z,25.70
2023-01-25T17:31:50.274Z,27.13
2023-01-25T17:34:19.808Z,30.33
2023-01-25T17:36:48.686Z,27.87
2023-01-25T17:39:21.238Z,28.50
2023-01-25T17:41:52.114Z,27.73
2023-01-25T17:44:25.065Z,28.30
2023-01-25T17:47:17.804Z,27.10
2023-01-25T17:49:47.052Z,23.93
2023-01-25T17:52:14.760Z,22.20
2023-01-25T17:54:43.374Z,22.63
2023-01-25T17:57:11.538Z,23.70
2023-01-25T17:59:39.743Z,22.70
2023-01-25T18:02:07.986Z,23.53
2023-01-25T18:04:40.749Z,21.37
2023-01-25T18:07:12.057Z,23.77
2023-01-25T18:09:40.080Z,20.70
2023-01-25T18:12:09.439Z,21.37
2023-01-25T18:14:37.785Z,21.60
2023-01-25T18:17:05.625Z,21.23
2023-01-25T18:19:34.449Z,20.30
2023-01-25T18:22:02.911Z,22.90
2023-01-25T18:24:34.575Z,22.33
2023-01-25T18:27:18.178Z,22.00
2023-01-25T18:30:07.186Z,20.17
2023-01-25T18:32:35.774Z,20.60
2023-01-25T18:35:04.648Z,19.47
2023-01-25T18:37:40.304Z,21.83
2023-01-25T18:40:10.795Z,22.23
2023-01-25T18:42:41.089Z,25.37
2023-01-25T18:45:09.766Z,29.47
2023-01-25T18:47:38.424Z,25.33
2023-01-25T18:50:07.272Z,22.47
2023-01-25T18:52:37.552Z,23.67
2023-01-25T18:55:06.455Z,25.10
2023-01-25T18:57:35.107Z,22.00
2023-01-25T19:00:04.966Z,22.40
2023-01-25T19:02:40.902Z,25.37
2023-01-25T19:05:10.573Z,48.10
2023-01-25T19:07:39.497Z,32.47
2023-01-25T19:10:08.080Z,27.03
2023-01-25T19:12:37.525Z,26.17
2023-01-25T19:15:07.851Z,24.87
2023-01-25T19:17:36.161Z,27.33
2023-01-25T19:20:05.128Z,28.67
2023-01-25T19:22:33.421Z,36.20
2023-01-25T19:25:02.216Z,33.53
2023-01-25T19:27:30.744Z,29.17
2023-01-25T19:29:59.684Z,28.97
2023-01-25T19:32:27.820Z,25.93
2023-01-25T19:35:05.575Z,24.87
2023-01-25T19:37:34.565Z,21.87
2023-01-25T19:40:04.087Z,21.80
2023-01-25T19:42:33.358Z,22.33
2023-01-25T19:45:05.410Z,26.60
2023-01-25T19:47:36.325Z,22.93
2023-01-25T19:50:07.489Z,25.13
2023-01-25T19:52:37.145Z,26.00
2023-01-25T19:55:08.136Z,26.03
2023-01-25T19:57:38.944Z,24.77
2023-01-25T20:00:12.353Z,24.20
2023-01-25T20:02:42.350Z,26.77
2023-01-25T20:05:12.340Z,29.40
2023-01-25T20:07:43.792Z,28.10
2023-01-25T20:10:14.355Z,28.00
2023-01-25T20:12:46.975Z,27.07
2023-01-25T20:15:16.129Z,28.03
2023-01-25T20:17:44.464Z,29.87
2023-01-25T20:20:15.275Z,25.10
2023-01-25T20:22:43.703Z,26.80
2023-01-25T20:25:12.462Z,28.43
2023-01-25T20:27:41.275Z,28.43
2023-01-25T20:30:14.560Z,29.93
2023-01-25T20:32:43.107Z,32.43
2023-01-25T20:35:12.071Z,27.60
2023-01-25T20:37:40.743Z,27.00
2023-01-25T20:40:10.665Z,26.03
2023-01-25T20:42:39.485Z,28.33
2023-01-25T20:45:12.081Z,24.40
2023-01-25T20:47:41.713Z,25.53
2023-01-25T20:50:11.185Z,25.80
2023-01-25T20:52:40.983Z,24.40
2023-01-25T20:55:12.343Z,26.63
2023-01-25T20:57:41.779Z,23.27
2023-01-25T21:00:10.926Z,26.73
2023-01-25T21:02:39.505Z,27.67
2023-01-25T21:05:08.733Z,27.77
2023-01-25T21:07:37.670Z,25.77
2023-01-25T21:10:06.622Z,25.97
2023-01-25T21:12:34.398Z,24.97
2023-01-25T21:15:02.394Z,27.03
2023-01-25T21:17:31.765Z,29.47
2023-01-25T21:20:01.288Z,29.20
2023-01-25T21:22:37.825Z,24.83
2023-01-25T21:25:09.679Z,29.80
2023-01-25T21:27:38.245Z,28.80
2023-01-25T21:30:06.445Z,28.83
2023-01-25T21:32:34.505Z,27.87
2023-01-25T21:35:01.785Z,27.30
2023-01-25T21:37:30.174Z,29.70
2023-01-25T21:39:57.558Z,27.77
2023-01-25T21:42:25.129Z,29.30
2023-01-25T21:45:20.223Z,33.03
2023-01-25T21:47:47.454Z,34.90
2023-01-25T21:50:35.585Z,33.27
2023-01-25T21:53:05.276Z,31.63
2023-01-25T21:55:32.342Z,34.23
2023-01-25T21:57:59.477Z,36.57
2023-01-25T22:00:26.498Z,35.13
2023-01-25T22:02:53.852Z,35.00
2023-01-25T22:05:20.831Z,38.07
2023-01-25T22:07:47.830Z,36.30
2023-01-25T22:10:14.943Z,35.00
2023-01-25T22:12:42.038Z,39.87
2023-01-25T22:15:09.352Z,32.87
2023-01-25T22:17:36.337Z,38.13
2023-01-25T22:20:03.752Z,38.87
2023-01-25T22:22:30.743Z,38.53
2023-01-25T22:24:57.642Z,41.47
2023-01-25T22:27:51.198Z,43.53
2023-01-25T22:30:18.235Z,40.83
2023-01-25T22:32:45.212Z,40.07
2023-01-25T22:35:12.207Z,41.77
2023-01-25T22:37:39.155Z,39.97
2023-01-25T22:40:07.355Z,42.50
2023-01-25T22:42:35.111Z,36.77
2023-01-25T22:45:02.120Z,38.17
2023-01-25T22:47:29.214Z,34.27
2023-01-25T22:49:56.277Z,35.10
2023-01-25T22:52:23.356Z,34.97
2023-01-25T22:54:50.915Z,35.43
2023-01-25T22:57:18.034Z,36.77
2023-01-25T22:59:45.220Z,36.17
2023-01-25T23:02:12.125Z,33.10
2023-01-25T23:04:39.100Z,33.83
2023-01-25T23:07:12.856Z,36.90
2023-01-25T23:09:40.567Z,34.63
2023-01-25T23:12:07.914Z,33.57
2023-01-25T23:14:54.287Z,33.13
2023-01-25T23:17:42.266Z,32.67
2023-01-25T23:20:11.950Z,30.30
2023-01-25T23:22:39.195Z,30.30
2023-01-25T23:25:07.062Z,27.30
2023-01-25T23:27:34.007Z,26.50
2023-01-25T23:30:01.359Z,28.20
2023-01-25T23:32:28.418Z,32.57
2023-01-25T23:34:55.504Z,28.93
2023-01-25T23:37:23.107Z,30.47
2023-01-25T23:39:50.679Z,27.90
2023-01-25T23:42:21.781Z,30.90
2023-01-25T23:44:48.956Z,26.67
2023-01-25T23:47:16.678Z,26.20
2023-01-25T23:49:43.619Z,23.30
2023-01-25T23:52:10.597Z,25.23
2023-01-25T23:54:37.678Z,23.63
2023-01-25T23:57:04.596Z,24.57
2023-01-25T23:59:31.528Z,24.20
